Onion Creek, California Weather observations

Data are for observation ending at time listed.
 Day   Time    Ave.   Ave.  Ave.  Vector   Max.   Stn.    Total    Solar   Ave.   Snow 
  of    of     Air    Rel.  Wind   Wind    Wind   Baro.  Precip.   Rad.    Soil   Depth
Year   Day     Temp.  Hum.  Speed  Dir.    Gust   Pres.                    Temp.       
2016   (PST)    F      %     mph   deg.    mph     mb.     in.     W/m2     F      in. 
---------------------------------------------------------------------------------------  
 178    9:40   71.6    54    2.3   301      8.6   836.3   48.40     904    60.5   999.0
 178    9:50   75.4    51    1.5   149      4.6   836.4   48.37     933    60.7   999.0
 178   10:00   77.8    42    2.3   260      6.9   836.4   48.40     957    61.0   999.0
 178   10:10   80.2    44    2.1   146      6.0   836.4   48.37     975    61.3   999.0
 178   10:20   81.9    41    1.8   289      6.4   836.4   48.40     995    61.6   999.0
 178   10:30   83.0    36    2.5   279      6.5   836.3   48.37    1011    62.0   999.0
 178   10:40   85.7    34    2.9   268      8.0   836.3   48.37    1025    62.5   999.0
 178   10:50   90.4    32    2.5   254      6.4   836.4   48.40    1039    62.9   999.0
 178   11:00   93.8    28    2.4   263      6.8   836.4   48.37    1043    63.3   999.0
 178   11:10   93.5    28    3.4   254     11.9   836.4   48.37    1056    63.8   999.0
 178   11:20   95.5    26    3.0   273      7.8   836.5   48.37    1064    64.3   999.0
 178   11:30   97.4    26    4.4   285      9.5   836.5   48.33    1079    64.8   999.0
 178   11:40   97.9    25    2.8   214      6.4   836.5   48.37    1025    65.3   999.0
 178   11:50   98.2    27    3.3   261      8.8   836.5   48.37    1085    65.8   999.0
 178   12:00   98.1    27    3.0   269      8.6   836.6   48.37    1046    66.2   999.0
 178   12:10   99.2    28    3.4   256      9.6   836.6   48.37    1091    66.6   999.0
 178   12:20  101.8    26    2.7   255      9.4   836.5   48.37    1089    66.9   999.0
 178   12:30  102.1    27    2.4   262      6.8   836.5   48.37    1088    67.2   999.0
 178   12:40  101.6    25    3.7   234      9.3   836.5   48.37    1073    67.4   999.0
 178   12:50  100.9    26    4.4   284      9.3   836.5   48.37    1057    67.5   999.0
 178   13:00  100.7    27    3.4   255      9.1   836.5   48.33    1054    67.6   999.0
 178   13:10   99.4    26    4.2   268     11.3   836.5   48.33    1063    67.8   999.0
 178   13:20   99.0    25    3.7   262     12.6   836.5   48.33    1048    67.9   999.0
 178   13:30  101.0    25    3.9   240     10.5   836.5   48.37    1042    68.1   999.0
 178   13:40  102.3    24    3.7   262     10.6   836.5   48.33    1030    68.3   999.0
 178   13:50  102.8    24    4.4   255     11.4   836.5   48.33    1010    68.6   999.0
 178   14:00  103.6    24    3.5   265     10.3   836.5   48.33     981    68.8   999.0
 178   14:10  102.1    24    3.4   264     11.4   836.4   48.33     975    69.0   999.0
 178   14:20  102.0    22    4.5   254     11.3   836.4   48.33     965    69.3   999.0
 178   14:30  102.0    23    3.4   259      9.5   836.4   48.29     944    69.6   999.0
 178   14:40  101.8    23    3.6   252     10.6   836.4   48.33     920    69.9   999.0
 178   14:50  101.8    25    3.6   266      9.8   836.3   48.33     895    70.2   999.0
 178   15:00  103.2    26    2.7   246     10.2   836.3   48.29     869    70.4   999.0
 178   15:10  102.3    24    3.0   251      7.3   836.3   48.33     841    70.8   999.0
 178   15:20  100.4    22    4.1   262      9.3   836.3   48.29     812    71.1   999.0
 178   15:30  101.0    23    2.3   178      6.2   836.3   48.26     774    71.3   999.0
 178   15:40  100.2    22    4.1   270     12.7   836.3   48.29     738    71.6   999.0
 178   15:50   97.8    24    3.3   244      8.0   836.3   48.26     706    71.8   999.0
 178   16:00   91.5    29    3.2   249      9.8   836.3   48.29     673    72.0   999.0
 178   16:10   83.7    33    3.6   274     10.3   836.4   48.29     639    72.1   999.0
 178   16:20   85.3    34    3.0   276      8.3   836.4   48.29     612    72.1   999.0
 178   16:30   90.0    30    3.0   261      9.2   836.4   48.29     582    72.1   999.0
 178   16:40   91.7    29    3.0   257      9.1   836.4   48.26     544    72.1   999.0
 178   16:50   90.3    31    3.5   256      9.6   836.4   48.29     509    72.0   999.0
 178   17:00   87.7    31    2.6   243      8.4   836.4   48.33     464    71.9   999.0
 178   17:10   83.6    36    3.4   258      9.9   836.4   48.37     345    71.8   999.0
 178   17:20   85.5    39    2.3   280      5.7   836.4   48.37     407    71.7   999.0
 178   17:30   87.0    34    3.9   277      9.3   836.5   48.37     367    71.6   999.0
 178   17:40   85.7    33    2.8   252      8.3   836.5   48.33     331    71.5   999.0
 178   17:50   84.2    35    3.0   264      8.8   836.5   48.33     298    71.4   999.0
 178   18:00   81.8    40    2.8   263      6.2   836.6   48.33     269    71.2   999.0
 178   18:10   76.3    47    2.0   272      5.3   836.7   48.33     236    71.1   999.0
 178   18:20   68.6    61    1.7   270      4.0   836.7   48.37     109    71.0   999.0
 178   18:30   65.8    64    1.7   294      4.1   836.8   48.37      73    70.9   999.0
 178   18:40   64.1    66    1.3   324      4.2   836.9   48.33      60    70.8   999.0
 178   18:50   61.2    71    0.9     5      1.6   836.9   48.33      15    70.6   999.0
 178   19:00   59.3    82    1.2    23      3.9   837.0   48.33      10    70.5   999.0
 178   19:10   57.8    81    1.9    33      3.0   837.1   48.37       8    70.3   999.0
 178   19:20   56.7    84    1.0    19      2.6   837.2   48.33       7    70.1   999.0
 178   19:30   55.7    89    1.5   352      3.9   837.2   48.37       5    69.8   999.0
 178   19:40   55.0    88    1.0    34      2.1   837.3   48.37       3    69.6   999.0
 178   19:50   54.1    92    1.7    30      3.0   837.4   48.37       1    69.4   999.0
 178   20:00   53.7    95    1.7    35      3.1   837.4   48.33       0    69.2   999.0
 178   20:10   52.7    94    2.2    33      2.8   837.4   48.40       0    68.9   999.0
 178   20:20   51.9    96    2.0    33      3.3   837.5   48.37       0    68.7   999.0
 178   20:30   51.3    96    2.1    32      2.9   837.6   48.37       0    68.5   999.0
 178   20:40   51.0    97    1.6    41      2.6   837.6   48.37       0    68.2   999.0
 178   20:50   50.8    97    1.4    41      2.6   837.7   48.33       0    68.0   999.0
 178   21:00   50.0    96    2.0    44      3.0   837.7   48.37       0    67.7   999.0
 178   21:10   49.8    97    1.7    46      2.9   837.8   48.37       0    67.5   999.0
 178   21:20   49.6    97    1.3    45      2.6   837.8   48.37       0    67.3   999.0
 178   21:30   49.5    98    1.2    23      1.9   837.7   48.37       0    67.1   999.0
 178   21:40   48.9    97    1.9    32      2.4   837.7   48.37       0    66.8   999.0
 178   21:50   48.3    97    1.8    34      2.6   837.6   48.37       0    66.6   999.0
 178   22:00   47.9    98    1.4    30      2.4   837.5   48.40       0    66.4   999.0
 178   22:10   48.5    98    1.2    32      2.0   837.5   48.37       0    66.2   999.0
 178   22:20   48.5    99    2.0    34      2.6   837.5   48.37       0    66.0   999.0
 178   22:30   47.9    98    1.8    33      2.6   837.4   48.37       0    65.8   999.0
 178   22:40   47.2    98    1.6    37      2.7   837.4   48.37       0    65.5   999.0
 178   22:50   46.9    98    2.2    39      2.9   837.4   48.37       0    65.3   999.0
 178   23:00   46.1    97    1.8    33      2.7   837.3   48.37       0    65.1   999.0
 178   23:10   45.8    97    1.9    29      2.9   837.3   48.37       0    64.9   999.0
 178   23:20   46.5    98    1.3    27      2.4   837.2   48.37       0    64.7   999.0
 178   23:30   46.3    98    2.1    36      2.8   837.2   48.37       0    64.5   999.0
 178   23:40   45.6    98    2.1    38      2.6   837.2   48.37       0    64.3   999.0
 178   23:50   45.2    98    2.0    46      3.0   837.2   48.37       0    64.1   999.0
 179    0:00   44.6    98    2.0    34      2.8   837.1   48.37       0    63.9   999.0
 179    0:10   44.8    98    2.2    30      3.3   837.1   48.37       0    63.7   999.0
 179    0:20   44.7    97    1.7    40      2.7   837.0   48.37       0    63.5   999.0
 179    0:30   44.5    98    1.3    37      2.3   837.0   48.37       0    63.3   999.0
 179    0:40   44.0    98    1.9    42      2.9   836.9   48.37       0    63.1   999.0
 179    0:50   44.0    98    1.4    42      2.3   836.8   48.37       0    62.9   999.0
 179    1:00   44.1    98    1.0    33      1.7   836.8   48.37       0    62.7   999.0
 179    1:10   44.0    98    1.0    46      2.3   836.9   48.37       0    62.5   999.0
 179    1:20   44.0    98    1.2    46      2.1   836.9   48.37       0    62.4   999.0
 179    1:30   44.1    98    1.6    48      2.4   837.0   48.37       0    62.2   999.0
 179    1:40   43.7    98    1.8    41      2.6   837.0   48.37       0    62.0   999.0
 179    1:50   43.8    99    1.6    44      2.4   837.0   48.37       0    61.8   999.0
 179    2:00   43.6    99    2.3    38      3.2   837.0   48.37       0    61.7   999.0
 179    2:10   43.5    99    2.1    34      3.2   837.0   48.37       0    61.5   999.0
 179    2:20   43.3    99    1.5    32      2.6   836.9   48.37       0    61.3   999.0
 179    2:30   43.5    99    1.6    36      2.5   836.9   48.37       0    61.2   999.0
 179    2:40   43.4    99    1.7    28      2.9   836.9   48.37       0    61.0   999.0
 179    2:50   43.3    99    1.5    23      2.0   836.9   48.40       0    60.9   999.0
 179    3:00   43.3    99    1.4    22      2.2   836.9   48.37       0    60.7   999.0
 179    3:10   43.2    99    1.1    28      2.6   836.9   48.37       0    60.5   999.0
 179    3:20   43.4    99    1.5    26      2.9   836.9   48.37       0    60.4   999.0
 179    3:30   43.2    99    2.5    39      3.1   836.9   48.37       0    60.3   999.0
 179    3:40   43.0    99    1.4    28      2.2   836.9   48.37       0    60.1   999.0
 179    3:50   42.8    99    2.1    36      3.4   837.0   48.40       0    60.0   999.0
 179    4:00   43.1    99    1.7    34      2.8   837.0   48.40       0    59.8   999.0
 179    4:10   42.9    99    1.6    38      2.8   837.1   48.37       0    59.7   999.0
 179    4:20   42.6    99    2.0    37      2.9   837.1   48.40       0    59.5   999.0
 179    4:30   41.7    99    2.2    35      3.1   837.1   48.37       1    59.4   999.0
 179    4:40   42.0    99    1.7    27      3.3   837.1   48.37       2    59.3   999.0
 179    4:50   42.4    99    1.3    23      2.7   837.2   48.40       4    59.1   999.0
 179    5:00   42.7    99    1.7    32      2.6   837.3   48.40       6    59.0   999.0
 179    5:10   42.8    99    2.2    34      3.1   837.3   48.40       7    58.9   999.0
 179    5:20   42.9    99    1.6    27      2.8   837.4   48.37       8    58.7   999.0
 179    5:30   43.1    99    1.3    23      2.5   837.5   48.37       9    58.6   999.0
 179    5:40   43.6    99    2.3    42      3.1   837.5   48.37      10    58.5   999.0
 179    5:50   43.4    99    2.8    39      3.5   837.5   48.40      11    58.4   999.0
 179    6:00   43.6    99    2.9    42      3.7   837.5   48.37      12    58.3   999.0
 179    6:10   43.9    99    2.7    44      3.8   837.5   48.40      14    58.2   999.0
 179    6:20   44.0    99    1.5    52      2.1   837.6   48.37      19    58.1   999.0
 179    6:30   44.4    99    2.6    42      3.4   837.6   48.40     149    58.0   999.0
 179    6:40   45.7    99    1.9    47      3.4   837.6   48.40      61    57.9   999.0
 179    6:50   46.1    99    1.4    50      1.9   837.6   48.40      23    57.8   999.0
 179    7:00   46.5    99    1.4    52      1.8   837.6   48.40     146    57.7   999.0
 179    7:10   48.6    99    1.4    52      2.1   837.6   48.40     463    57.7   999.0
 179    7:20   51.7    99    1.9    48      2.6   837.7   48.40     488    57.6   999.0
 179    7:30   54.0    98    2.0    44      2.5   837.7   48.40     528    57.6   999.0
 179    7:40   56.1    97    1.4    45      2.2   837.7   48.44     563    57.6   999.0
 179    7:50   58.9    95    1.2    60      2.0   837.7   48.40     602    57.7   999.0
 179    8:00   61.0    92    1.3    64      1.9   837.7   48.40     631    57.9   999.0
 179    8:10   62.9    82    1.2    68      1.8   837.8   48.40     658    58.0   999.0
 179    8:20   64.5    74    0.7    80      1.7   837.7   48.40     689    58.3   999.0
 179    8:30   65.2    67    0.9    95      2.3   837.7   48.40     719    58.6   999.0
 179    8:40   62.3    66    1.2   104      4.3   837.7   48.40     748    58.9   999.0
 179    8:50   59.8    73    0.8    80      4.8   837.8   48.40     779    59.3   999.0
 179    9:00   60.2    71    0.9   126      4.0   837.8   48.40     805    59.7   999.0
 179    9:10   59.0    71    1.4   125      3.7   837.7   48.40     830    60.0   999.0
 179    9:20   59.3    69    1.7   114      3.6   837.7   48.40     857    60.4   999.0
 179    9:30   65.2    66    1.5   262      4.4   837.7   48.40     881    60.7   999.0

Return to Onion Creek graphs page.


Western Regional Climate Center,wrcc@dri.edu